sensor_id;sensor_type;location;lat;lon;timestamp;pressure;altitude;pressure_sealevel;temperature;humidity
50859;BME280;36826;47.514;19.056;2022-11-20T00:01:40;99830.44;;;6.64;62.86
50859;BME280;36826;47.514;19.056;2022-11-20T00:04:05;99822.91;;;6.47;63.98
50859;BME280;36826;47.514;19.056;2022-11-20T00:06:31;99813.38;;;6.89;63.60
50859;BME280;36826;47.514;19.056;2022-11-20T00:08:58;99808.41;;;6.51;64.02
50859;BME280;36826;47.514;19.056;2022-11-20T00:11:26;99805.63;;;6.52;63.12
50859;BME280;36826;47.514;19.056;2022-11-20T00:13:53;99805.47;;;6.42;63.03
50859;BME280;36826;47.514;19.056;2022-11-20T00:16:21;99813.03;;;5.89;64.21
50859;BME280;36826;47.514;19.056;2022-11-20T00:18:47;99810.34;;;6.83;62.35
50859;BME280;36826;47.514;19.056;2022-11-20T00:23:42;99818.03;;;6.29;63.30
50859;BME280;36826;47.514;19.056;2022-11-20T00:26:10;99821.00;;;6.94;61.61
50859;BME280;36826;47.514;19.056;2022-11-20T00:28:36;99839.50;;;6.73;62.37
50859;BME280;36826;47.514;19.056;2022-11-20T00:31:03;99825.34;;;6.72;61.49
50859;BME280;36826;47.514;19.056;2022-11-20T00:33:30;99819.75;;;6.41;62.53
50859;BME280;36826;47.514;19.056;2022-11-20T00:36:07;99825.06;;;6.41;61.93
50859;BME280;36826;47.514;19.056;2022-11-20T00:38:33;99842.06;;;6.74;62.55
50859;BME280;36826;47.514;19.056;2022-11-20T00:41:01;99860.59;;;7.21;61.17
50859;BME280;36826;47.514;19.056;2022-11-20T00:43:27;99856.72;;;6.80;60.51
50859;BME280;36826;47.514;19.056;2022-11-20T00:46:17;99843.25;;;7.04;60.34
50859;BME280;36826;47.514;19.056;2022-11-20T00:48:43;99834.81;;;6.99;60.53
50859;BME280;36826;47.514;19.056;2022-11-20T00:51:11;99827.25;;;6.01;63.02
50859;BME280;36826;47.514;19.056;2022-11-20T00:53:37;99826.63;;;5.48;63.41
50859;BME280;36826;47.514;19.056;2022-11-20T00:56:05;99818.69;;;6.67;62.40
50859;BME280;36826;47.514;19.056;2022-11-20T00:58:32;99815.47;;;5.92;63.21
50859;BME280;36826;47.514;19.056;2022-11-20T01:01:10;99824.19;;;5.69;64.50
50859;BME280;36826;47.514;19.056;2022-11-20T01:03:38;99828.25;;;6.58;63.13
50859;BME280;36826;47.514;19.056;2022-11-20T01:06:05;99825.22;;;5.56;65.69
50859;BME280;36826;47.514;19.056;2022-11-20T01:08:35;99825.50;;;6.12;65.29
50859;BME280;36826;47.514;19.056;2022-11-20T01:11:07;99820.25;;;6.69;63.67
50859;BME280;36826;47.514;19.056;2022-11-20T01:13:33;99821.38;;;6.20;64.43
50859;BME280;36826;47.514;19.056;2022-11-20T01:16:16;99817.34;;;6.50;63.52
50859;BME280;36826;47.514;19.056;2022-11-20T01:18:44;99831.88;;;6.68;64.09
50859;BME280;36826;47.514;19.056;2022-11-20T01:21:12;99832.72;;;5.37;67.22
50859;BME280;36826;47.514;19.056;2022-11-20T01:23:41;99831.53;;;5.42;67.77
50859;BME280;36826;47.514;19.056;2022-11-20T01:26:09;99829.16;;;6.34;65.84
50859;BME280;36826;47.514;19.056;2022-11-20T01:28:35;99821.53;;;6.29;64.89
50859;BME280;36826;47.514;19.056;2022-11-20T01:31:00;99821.22;;;6.57;64.81
50859;BME280;36826;47.514;19.056;2022-11-20T01:33:26;99817.97;;;6.87;63.82
50859;BME280;36826;47.514;19.056;2022-11-20T01:35:52;99812.53;;;6.89;63.66
50859;BME280;36826;47.514;19.056;2022-11-20T01:38:19;99809.72;;;6.45;64.99
50859;BME280;36826;47.514;19.056;2022-11-20T01:40:53;99803.09;;;6.73;64.44
50859;BME280;36826;47.514;19.056;2022-11-20T01:43:19;99805.03;;;6.60;64.68
50859;BME280;36826;47.514;19.056;2022-11-20T01:46:13;99795.31;;;6.36;66.00
50859;BME280;36826;47.514;19.056;2022-11-20T01:51:19;99803.56;;;7.13;63.75
50859;BME280;36826;47.514;19.056;2022-11-20T01:53:46;99795.19;;;6.38;65.23
50859;BME280;36826;47.514;19.056;2022-11-20T01:56:13;99799.09;;;6.68;65.26
50859;BME280;36826;47.514;19.056;2022-11-20T01:58:47;99799.69;;;6.94;64.53
50859;BME280;36826;47.514;19.056;2022-11-20T02:01:13;99791.56;;;6.50;65.44
50859;BME280;36826;47.514;19.056;2022-11-20T02:03:39;99795.00;;;6.05;66.33
50859;BME280;36826;47.514;19.056;2022-11-20T02:06:12;99784.38;;;5.57;68.36
50859;BME280;36826;47.514;19.056;2022-11-20T02:08:40;99787.16;;;5.55;68.69
50859;BME280;36826;47.514;19.056;2022-11-20T02:11:06;99788.25;;;5.88;67.27
50859;BME280;36826;47.514;19.056;2022-11-20T02:13:31;99798.41;;;6.19;66.85
50859;BME280;36826;47.514;19.056;2022-11-20T02:16:27;99806.81;;;6.01;66.83
50859;BME280;36826;47.514;19.056;2022-11-20T02:18:55;99799.91;;;5.98;66.96
50859;BME280;36826;47.514;19.056;2022-11-20T02:24:18;99797.81;;;5.91;67.48
50859;BME280;36826;47.514;19.056;2022-11-20T02:29:14;99806.25;;;6.20;66.66
50859;BME280;36826;47.514;19.056;2022-11-20T02:31:42;99800.19;;;6.88;65.15
50859;BME280;36826;47.514;19.056;2022-11-20T02:34:09;99785.66;;;7.15;63.80
50859;BME280;36826;47.514;19.056;2022-11-20T02:36:35;99782.94;;;6.12;66.00
50859;BME280;36826;47.514;19.056;2022-11-20T02:39:03;99779.72;;;5.96;66.10
50859;BME280;36826;47.514;19.056;2022-11-20T02:41:33;99771.38;;;6.25;65.84
50859;BME280;36826;47.514;19.056;2022-11-20T02:43:59;99777.50;;;6.14;66.46
50859;BME280;36826;47.514;19.056;2022-11-20T02:46:24;99774.41;;;6.88;64.06
50859;BME280;36826;47.514;19.056;2022-11-20T02:48:50;99780.34;;;7.03;63.27
50859;BME280;36826;47.514;19.056;2022-11-20T02:51:15;99783.69;;;7.17;63.04
50859;BME280;36826;47.514;19.056;2022-11-20T02:53:40;99783.81;;;6.47;64.44
50859;BME280;36826;47.514;19.056;2022-11-20T02:56:06;99785.06;;;6.88;63.38
50859;BME280;36826;47.514;19.056;2022-11-20T02:58:31;99778.91;;;6.88;64.06
50859;BME280;36826;47.514;19.056;2022-11-20T03:00:57;99779.06;;;7.42;62.60
50859;BME280;36826;47.514;19.056;2022-11-20T03:03:22;99760.69;;;7.27;62.60
50859;BME280;36826;47.514;19.056;2022-11-20T03:05:48;99758.44;;;6.32;64.41
50859;BME280;36826;47.514;19.056;2022-11-20T03:08:13;99764.34;;;6.81;63.58
50859;BME280;36826;47.514;19.056;2022-11-20T03:10:39;99758.78;;;6.95;63.37
50859;BME280;36826;47.514;19.056;2022-11-20T03:13:04;99772.34;;;6.35;65.44
50859;BME280;36826;47.514;19.056;2022-11-20T03:15:30;99765.59;;;6.77;63.86
50859;BME280;36826;47.514;19.056;2022-11-20T03:17:55;99760.72;;;6.93;63.62
50859;BME280;36826;47.514;19.056;2022-11-20T03:20:22;99769.75;;;7.25;62.76
50859;BME280;36826;47.514;19.056;2022-11-20T03:22:47;99775.44;;;7.20;62.52
50859;BME280;36826;47.514;19.056;2022-11-20T03:25:13;99776.94;;;7.01;62.09
50859;BME280;36826;47.514;19.056;2022-11-20T03:27:38;99786.41;;;6.71;63.73
50859;BME280;36826;47.514;19.056;2022-11-20T03:30:04;99792.44;;;6.96;63.13
50859;BME280;36826;47.514;19.056;2022-11-20T03:32:30;99794.59;;;6.57;62.62
50859;BME280;36826;47.514;19.056;2022-11-20T03:34:56;99787.00;;;6.75;62.98
50859;BME280;36826;47.514;19.056;2022-11-20T03:37:22;99771.97;;;5.93;64.34
50859;BME280;36826;47.514;19.056;2022-11-20T03:39:47;99770.41;;;6.83;62.99
50859;BME280;36826;47.514;19.056;2022-11-20T03:42:12;99761.63;;;7.37;61.56
50859;BME280;36826;47.514;19.056;2022-11-20T03:44:56;99766.06;;;6.36;63.65
50859;BME280;36826;47.514;19.056;2022-11-20T03:47:21;99773.31;;;6.68;62.98
50859;BME280;36826;47.514;19.056;2022-11-20T03:49:47;99765.59;;;6.77;62.99
50859;BME280;36826;47.514;19.056;2022-11-20T03:52:12;99762.75;;;6.21;63.46
50859;BME280;36826;47.514;19.056;2022-11-20T03:54:37;99767.47;;;7.20;62.15
50859;BME280;36826;47.514;19.056;2022-11-20T03:57:03;99758.97;;;6.01;63.05
50859;BME280;36826;47.514;19.056;2022-11-20T03:59:28;99763.75;;;5.96;64.03
50859;BME280;36826;47.514;19.056;2022-11-20T04:01:54;99756.84;;;6.40;63.53
50859;BME280;36826;47.514;19.056;2022-11-20T04:04:19;99774.78;;;6.72;62.66
50859;BME280;36826;47.514;19.056;2022-11-20T04:06:45;99763.28;;;6.95;62.85
50859;BME280;36826;47.514;19.056;2022-11-20T04:09:10;99758.94;;;7.37;61.59
50859;BME280;36826;47.514;19.056;2022-11-20T04:11:37;99756.31;;;7.26;62.10
50859;BME280;36826;47.514;19.056;2022-11-20T04:14:06;99750.56;;;7.75;61.77
50859;BME280;36826;47.514;19.056;2022-11-20T04:16:34;99749.66;;;7.64;62.17
50859;BME280;36826;47.514;19.056;2022-11-20T04:19:02;99742.00;;;7.92;61.33
50859;BME280;36826;47.514;19.056;2022-11-20T04:21:28;99740.81;;;7.20;62.26
50859;BME280;36826;47.514;19.056;2022-11-20T04:23:54;99726.78;;;7.29;62.55
50859;BME280;36826;47.514;19.056;2022-11-20T04:26:20;99728.22;;;7.22;62.63
50859;BME280;36826;47.514;19.056;2022-11-20T04:28:46;99732.03;;;6.85;62.91
50859;BME280;36826;47.514;19.056;2022-11-20T04:31:13;99731.97;;;7.31;62.50
50859;BME280;36826;47.514;19.056;2022-11-20T04:33:39;99733.41;;;7.24;62.75
50859;BME280;36826;47.514;19.056;2022-11-20T04:36:09;99731.63;;;7.24;62.19
50859;BME280;36826;47.514;19.056;2022-11-20T04:38:35;99731.22;;;6.73;63.54
50859;BME280;36826;47.514;19.056;2022-11-20T04:41:04;99728.03;;;7.46;62.73
50859;BME280;36826;47.514;19.056;2022-11-20T04:43:30;99737.78;;;7.57;62.02
50859;BME280;36826;47.514;19.056;2022-11-20T04:45:57;99734.69;;;7.94;61.51
50859;BME280;36826;47.514;19.056;2022-11-20T04:48:23;99730.25;;;7.62;61.91
50859;BME280;36826;47.514;19.056;2022-11-20T04:50:50;99725.41;;;6.45;64.42
50859;BME280;36826;47.514;19.056;2022-11-20T04:53:16;99709.41;;;7.02;63.92
50859;BME280;36826;47.514;19.056;2022-11-20T04:55:41;99697.81;;;7.25;63.08
50859;BME280;36826;47.514;19.056;2022-11-20T04:58:07;99703.00;;;7.37;62.58
50859;BME280;36826;47.514;19.056;2022-11-20T05:00:33;99700.13;;;7.29;63.21
50859;BME280;36826;47.514;19.056;2022-11-20T05:02:58;99708.56;;;6.90;64.05
50859;BME280;36826;47.514;19.056;2022-11-20T05:05:24;99696.47;;;7.30;63.52
50859;BME280;36826;47.514;19.056;2022-11-20T05:07:49;99701.78;;;7.30;63.10
50859;BME280;36826;47.514;19.056;2022-11-20T05:10:15;99715.00;;;6.08;65.69
50859;BME280;36826;47.514;19.056;2022-11-20T05:12:40;99721.25;;;6.98;64.43
50859;BME280;36826;47.514;19.056;2022-11-20T05:15:06;99719.19;;;7.46;62.34
50859;BME280;36826;47.514;19.056;2022-11-20T05:17:33;99710.56;;;7.75;61.57
50859;BME280;36826;47.514;19.056;2022-11-20T05:19:58;99718.97;;;7.91;61.12
50859;BME280;36826;47.514;19.056;2022-11-20T05:22:24;99709.44;;;7.56;62.00
50859;BME280;36826;47.514;19.056;2022-11-20T05:24:49;99703.72;;;7.40;61.61
50859;BME280;36826;47.514;19.056;2022-11-20T05:27:15;99699.47;;;6.93;63.78
50859;BME280;36826;47.514;19.056;2022-11-20T05:29:40;99683.56;;;6.59;63.82
50859;BME280;36826;47.514;19.056;2022-11-20T05:32:06;99686.72;;;7.19;63.21
50859;BME280;36826;47.514;19.056;2022-11-20T05:34:34;99686.38;;;7.13;63.15
50859;BME280;36826;47.514;19.056;2022-11-20T05:36:59;99680.56;;;6.18;64.70
50859;BME280;36826;47.514;19.056;2022-11-20T05:39:24;99669.56;;;6.34;64.82
50859;BME280;36826;47.514;19.056;2022-11-20T05:41:50;99683.78;;;6.79;64.02
50859;BME280;36826;47.514;19.056;2022-11-20T05:44:35;99683.22;;;7.40;61.85
50859;BME280;36826;47.514;19.056;2022-11-20T05:47:00;99690.09;;;7.54;61.71
50859;BME280;36826;47.514;19.056;2022-11-20T05:49:26;99694.44;;;7.76;60.88
50859;BME280;36826;47.514;19.056;2022-11-20T05:51:51;99702.75;;;7.41;61.31
50859;BME280;36826;47.514;19.056;2022-11-20T05:54:17;99695.81;;;7.92;60.92
50859;BME280;36826;47.514;19.056;2022-11-20T05:56:42;99700.41;;;8.11;60.71
50859;BME280;36826;47.514;19.056;2022-11-20T05:59:07;99708.56;;;7.88;60.67
50859;BME280;36826;47.514;19.056;2022-11-20T06:01:33;99703.16;;;7.78;60.48
50859;BME280;36826;47.514;19.056;2022-11-20T06:03:58;99704.44;;;8.26;59.80
50859;BME280;36826;47.514;19.056;2022-11-20T06:06:24;99714.84;;;7.66;60.23
50859;BME280;36826;47.514;19.056;2022-11-20T06:08:51;99710.00;;;7.92;60.75
50859;BME280;36826;47.514;19.056;2022-11-20T06:11:17;99713.06;;;7.66;61.09
50859;BME280;36826;47.514;19.056;2022-11-20T06:13:43;99722.97;;;8.07;59.96
50859;BME280;36826;47.514;19.056;2022-11-20T06:16:10;99720.28;;;8.28;59.79
50859;BME280;36826;47.514;19.056;2022-11-20T06:18:36;99706.56;;;8.33;59.35
50859;BME280;36826;47.514;19.056;2022-11-20T06:23:33;99699.44;;;8.12;58.52
50859;BME280;36826;47.514;19.056;2022-11-20T06:26:07;99700.63;;;8.19;59.14
50859;BME280;36826;47.514;19.056;2022-11-20T06:28:32;99710.78;;;8.35;59.33
50859;BME280;36826;47.514;19.056;2022-11-20T06:30:58;99702.13;;;8.43;58.71
50859;BME280;36826;47.514;19.056;2022-11-20T06:33:24;99718.59;;;8.27;58.56
50859;BME280;36826;47.514;19.056;2022-11-20T06:35:51;99726.88;;;8.45;58.89
50859;BME280;36826;47.514;19.056;2022-11-20T06:38:16;99727.16;;;8.21;59.06
50859;BME280;36826;47.514;19.056;2022-11-20T06:40:42;99739.66;;;7.99;59.74
50859;BME280;36826;47.514;19.056;2022-11-20T06:43:11;99746.53;;;8.44;59.37
50859;BME280;36826;47.514;19.056;2022-11-20T06:45:37;99752.91;;;8.32;59.25
50859;BME280;36826;47.514;19.056;2022-11-20T06:48:03;99751.13;;;8.63;58.58
50859;BME280;36826;47.514;19.056;2022-11-20T06:50:28;99749.31;;;8.42;58.75
50859;BME280;36826;47.514;19.056;2022-11-20T06:52:54;99749.66;;;8.49;59.06
50859;BME280;36826;47.514;19.056;2022-11-20T06:55:19;99738.53;;;8.75;59.13
50859;BME280;36826;47.514;19.056;2022-11-20T06:57:45;99741.63;;;8.80;58.52
50859;BME280;36826;47.514;19.056;2022-11-20T07:00:11;99731.44;;;9.05;57.74
50859;BME280;36826;47.514;19.056;2022-11-20T07:02:36;99739.06;;;8.69;58.05
50859;BME280;36826;47.514;19.056;2022-11-20T07:05:02;99734.69;;;7.52;60.57
50859;BME280;36826;47.514;19.056;2022-11-20T07:07:27;99720.59;;;8.25;59.28
50859;BME280;36826;47.514;19.056;2022-11-20T07:09:52;99727.72;;;8.24;58.80
50859;BME280;36826;47.514;19.056;2022-11-20T07:12:18;99726.84;;;8.14;59.09
50859;BME280;36826;47.514;19.056;2022-11-20T07:14:43;99741.22;;;8.02;59.78
50859;BME280;36826;47.514;19.056;2022-11-20T07:17:09;99732.97;;;7.51;60.55
50859;BME280;36826;47.514;19.056;2022-11-20T07:19:34;99749.13;;;8.55;59.54
50859;BME280;36826;47.514;19.056;2022-11-20T07:21:59;99749.25;;;8.85;58.39
50859;BME280;36826;47.514;19.056;2022-11-20T07:24:25;99759.97;;;8.95;57.93
50859;BME280;36826;47.514;19.056;2022-11-20T07:26:50;99762.28;;;9.29;57.04
50859;BME280;36826;47.514;19.056;2022-11-20T07:29:17;99753.59;;;9.36;57.19
50859;BME280;36826;47.514;19.056;2022-11-20T07:31:42;99756.03;;;8.99;58.13
50859;BME280;36826;47.514;19.056;2022-11-20T07:34:08;99758.00;;;8.97;57.78
50859;BME280;36826;47.514;19.056;2022-11-20T07:36:34;99768.63;;;9.28;58.51
50859;BME280;36826;47.514;19.056;2022-11-20T07:38:59;99769.91;;;8.31;60.27
50859;BME280;36826;47.514;19.056;2022-11-20T07:41:25;99763.38;;;8.02;61.70
50859;BME280;36826;47.514;19.056;2022-11-20T07:43:50;99765.94;;;8.04;61.20
50859;BME280;36826;47.514;19.056;2022-11-20T07:46:15;99759.25;;;8.09;61.18
50859;BME280;36826;47.514;19.056;2022-11-20T07:48:41;99760.34;;;7.53;63.13
50859;BME280;36826;47.514;19.056;2022-11-20T07:51:06;99767.53;;;7.74;62.87
50859;BME280;36826;47.514;19.056;2022-11-20T07:53:32;99763.13;;;7.84;62.73
50859;BME280;36826;47.514;19.056;2022-11-20T07:56:01;99772.81;;;7.85;62.40
50859;BME280;36826;47.514;19.056;2022-11-20T07:58:29;99768.13;;;8.41;61.67
50859;BME280;36826;47.514;19.056;2022-11-20T08:00:55;99767.88;;;8.02;61.65
50859;BME280;36826;47.514;19.056;2022-11-20T08:03:20;99763.72;;;8.09;62.25
50859;BME280;36826;47.514;19.056;2022-11-20T08:05:46;99755.31;;;8.87;59.71
50859;BME280;36826;47.514;19.056;2022-11-20T08:08:11;99745.94;;;9.12;59.94
50859;BME280;36826;47.514;19.056;2022-11-20T08:10:36;99739.34;;;7.92;62.22
50859;BME280;36826;47.514;19.056;2022-11-20T08:13:02;99739.13;;;8.26;61.84
50859;BME280;36826;47.514;19.056;2022-11-20T08:15:50;99744.59;;;9.47;59.52
50859;BME280;36826;47.514;19.056;2022-11-20T08:18:16;99747.69;;;9.72;58.71
50859;BME280;36826;47.514;19.056;2022-11-20T08:20:42;99752.03;;;9.34;58.59
50859;BME280;36826;47.514;19.056;2022-11-20T08:23:08;99752.72;;;9.26;59.19
50859;BME280;36826;47.514;19.056;2022-11-20T08:25:35;99748.38;;;10.04;58.97
50859;BME280;36826;47.514;19.056;2022-11-20T08:28:02;99748.44;;;10.51;57.26
50859;BME280;36826;47.514;19.056;2022-11-20T08:30:28;99745.06;;;10.39;57.97
50859;BME280;36826;47.514;19.056;2022-11-20T08:32:54;99741.47;;;9.32;58.54
50859;BME280;36826;47.514;19.056;2022-11-20T08:35:20;99739.78;;;9.71;58.68
50859;BME280;36826;47.514;19.056;2022-11-20T08:37:49;99737.22;;;9.20;59.36
50859;BME280;36826;47.514;19.056;2022-11-20T08:40:14;99751.72;;;10.25;57.83
50859;BME280;36826;47.514;19.056;2022-11-20T08:42:47;99762.16;;;10.76;57.39
50859;BME280;36826;47.514;19.056;2022-11-20T08:45:13;99761.75;;;9.94;57.80
50859;BME280;36826;47.514;19.056;2022-11-20T08:47:38;99761.16;;;10.20;57.48
50859;BME280;36826;47.514;19.056;2022-11-20T08:50:04;99759.47;;;10.38;56.93
50859;BME280;36826;47.514;19.056;2022-11-20T08:52:29;99762.16;;;10.19;57.56
50859;BME280;36826;47.514;19.056;2022-11-20T08:54:54;99760.63;;;9.67;58.95
50859;BME280;36826;47.514;19.056;2022-11-20T08:57:20;99760.09;;;9.73;58.49
50859;BME280;36826;47.514;19.056;2022-11-20T08:59:45;99772.75;;;9.91;58.68
50859;BME280;36826;47.514;19.056;2022-11-20T09:02:11;99768.47;;;10.18;57.67
50859;BME280;36826;47.514;19.056;2022-11-20T09:04:37;99766.72;;;10.56;56.89
50859;BME280;36826;47.514;19.056;2022-11-20T09:07:02;99781.34;;;10.71;56.07
50859;BME280;36826;47.514;19.056;2022-11-20T09:09:28;99771.91;;;10.67;55.47
50859;BME280;36826;47.514;19.056;2022-11-20T09:11:53;99775.41;;;10.78;56.01
50859;BME280;36826;47.514;19.056;2022-11-20T09:14:19;99780.00;;;10.48;56.14
50859;BME280;36826;47.514;19.056;2022-11-20T09:16:45;99782.97;;;10.44;57.06
50859;BME280;36826;47.514;19.056;2022-11-20T09:19:11;99781.09;;;10.55;56.90
50859;BME280;36826;47.514;19.056;2022-11-20T09:21:36;99787.78;;;10.41;57.23
50859;BME280;36826;47.514;19.056;2022-11-20T09:24:02;99787.66;;;10.23;56.90
50859;BME280;36826;47.514;19.056;2022-11-20T09:26:28;99788.75;;;10.50;57.05
50859;BME280;36826;47.514;19.056;2022-11-20T09:28:53;99785.69;;;9.76;58.36
50859;BME280;36826;47.514;19.056;2022-11-20T09:31:24;99780.25;;;9.07;61.04
50859;BME280;36826;47.514;19.056;2022-11-20T09:33:51;99780.94;;;8.68;61.96
50859;BME280;36826;47.514;19.056;2022-11-20T09:36:17;99773.03;;;8.98;62.08
50859;BME280;36826;47.514;19.056;2022-11-20T09:38:44;99770.06;;;9.71;60.47
50859;BME280;36826;47.514;19.056;2022-11-20T09:44:18;99773.47;;;9.73;60.06
50859;BME280;36826;47.514;19.056;2022-11-20T09:46:54;99761.91;;;9.63;60.91
50859;BME280;36826;47.514;19.056;2022-11-20T09:49:51;99762.41;;;10.45;58.28
50859;BME280;36826;47.514;19.056;2022-11-20T09:52:37;99763.28;;;10.06;60.01
50859;BME280;36826;47.514;19.056;2022-11-20T09:55:09;99756.22;;;10.82;57.88
50859;BME280;36826;47.514;19.056;2022-11-20T09:57:37;99759.59;;;11.30;57.00
50859;BME280;36826;47.514;19.056;2022-11-20T10:00:08;99748.81;;;10.94;56.06
50859;BME280;36826;47.514;19.056;2022-11-20T10:02:52;99755.19;;;11.11;56.33
50859;BME280;36826;47.514;19.056;2022-11-20T10:05:28;99758.50;;;10.67;57.54
50859;BME280;36826;47.514;19.056;2022-11-20T10:13:29;99732.78;;;12.03;54.28
50859;BME280;36826;47.514;19.056;2022-11-20T10:18:51;99726.53;;;12.81;52.48
50859;BME280;36826;47.514;19.056;2022-11-20T10:21:33;99717.72;;;11.65;54.28
50859;BME280;36826;47.514;19.056;2022-11-20T10:29:37;99693.19;;;11.24;55.77
50859;BME280;36826;47.514;19.056;2022-11-20T10:32:11;99712.47;;;10.82;56.33
50859;BME280;36826;47.514;19.056;2022-11-20T10:37:22;99700.63;;;12.37;54.14
50859;BME280;36826;47.514;19.056;2022-11-20T10:42:33;99704.84;;;12.40;52.55
50859;BME280;36826;47.514;19.056;2022-11-20T10:47:50;99692.44;;;12.47;52.97
50859;BME280;36826;47.514;19.056;2022-11-20T10:50:19;99690.63;;;11.77;53.75
50859;BME280;36826;47.514;19.056;2022-11-20T10:52:58;99703.91;;;11.06;55.37
50859;BME280;36826;47.514;19.056;2022-11-20T10:55:47;99701.84;;;11.54;54.49
50859;BME280;36826;47.514;19.056;2022-11-20T10:58:45;99701.06;;;11.44;55.19
50859;BME280;36826;47.514;19.056;2022-11-20T11:01:20;99708.22;;;12.42;52.58
50859;BME280;36826;47.514;19.056;2022-11-20T11:03:51;99712.13;;;12.56;52.49
50859;BME280;36826;47.514;19.056;2022-11-20T11:08:53;99712.78;;;12.84;50.77
50859;BME280;36826;47.514;19.056;2022-11-20T11:11:23;99722.63;;;13.18;50.59
50859;BME280;36826;47.514;19.056;2022-11-20T11:13:50;99728.34;;;11.21;54.08
50859;BME280;36826;47.514;19.056;2022-11-20T11:16:26;99725.88;;;11.82;53.69
50859;BME280;36826;47.514;19.056;2022-11-20T11:19:03;99720.19;;;12.56;52.14
50859;BME280;36826;47.514;19.056;2022-11-20T11:21:28;99712.59;;;12.43;51.56
50859;BME280;36826;47.514;19.056;2022-11-20T11:23:59;99721.53;;;12.25;51.93
50859;BME280;36826;47.514;19.056;2022-11-20T11:26:26;99721.34;;;12.45;51.69
50859;BME280;36826;47.514;19.056;2022-11-20T11:31:31;99734.28;;;12.50;51.77
50859;BME280;36826;47.514;19.056;2022-11-20T11:34:05;99728.13;;;12.66;52.15
50859;BME280;36826;47.514;19.056;2022-11-20T11:36:32;99717.69;;;12.97;51.61
50859;BME280;36826;47.514;19.056;2022-11-20T11:38:58;99716.28;;;12.42;53.00
50859;BME280;36826;47.514;19.056;2022-11-20T11:41:27;99706.94;;;13.05;51.00
50859;BME280;36826;47.514;19.056;2022-11-20T11:43:55;99703.91;;;13.00;51.22
50859;BME280;36826;47.514;19.056;2022-11-20T11:47:00;99698.81;;;13.40;50.88
50859;BME280;36826;47.514;19.056;2022-11-20T11:49:25;99705.19;;;11.92;52.81
50859;BME280;36826;47.514;19.056;2022-11-20T11:54:35;99702.13;;;13.26;52.40
50859;BME280;36826;47.514;19.056;2022-11-20T11:57:09;99684.97;;;13.10;51.90
50859;BME280;36826;47.514;19.056;2022-11-20T11:59:47;99685.47;;;12.63;52.51
50859;BME280;36826;47.514;19.056;2022-11-20T12:05:13;99688.28;;;12.96;51.73
50859;BME280;36826;47.514;19.056;2022-11-20T12:07:45;99693.06;;;11.88;54.85
50859;BME280;36826;47.514;19.056;2022-11-20T12:10:19;99694.53;;;12.62;52.15
50859;BME280;36826;47.514;19.056;2022-11-20T12:12:50;99687.97;;;13.07;51.47
50859;BME280;36826;47.514;19.056;2022-11-20T12:15:25;99697.72;;;13.16;51.67
50859;BME280;36826;47.514;19.056;2022-11-20T12:17:51;99702.94;;;12.67;51.86
50859;BME280;36826;47.514;19.056;2022-11-20T12:20:17;99700.22;;;12.24;52.84
50859;BME280;36826;47.514;19.056;2022-11-20T12:25:35;99691.53;;;13.16;51.09
50859;BME280;36826;47.514;19.056;2022-11-20T12:33:42;99670.78;;;12.83;51.93
50859;BME280;36826;47.514;19.056;2022-11-20T12:36:35;99669.16;;;12.56;52.07
50859;BME280;36826;47.514;19.056;2022-11-20T12:39:16;99675.50;;;12.20;52.83
50859;BME280;36826;47.514;19.056;2022-11-20T12:55:49;99687.91;;;12.82;51.34
50859;BME280;36826;47.514;19.056;2022-11-20T13:06:51;99690.63;;;12.56;52.25
50859;BME280;36826;47.514;19.056;2022-11-20T13:09:19;99696.59;;;12.76;52.17
50859;BME280;36826;47.514;19.056;2022-11-20T13:17:27;99701.13;;;12.33;52.15
50859;BME280;36826;47.514;19.056;2022-11-20T13:19:55;99702.25;;;12.56;52.50
50859;BME280;36826;47.514;19.056;2022-11-20T13:22:46;99699.94;;;12.09;52.89
50859;BME280;36826;47.514;19.056;2022-11-20T13:25:23;99697.78;;;12.39;53.14
50859;BME280;36826;47.514;19.056;2022-11-20T13:27:49;99694.25;;;12.12;53.60
50859;BME280;36826;47.514;19.056;2022-11-20T13:30:18;99681.72;;;12.21;53.52
50859;BME280;36826;47.514;19.056;2022-11-20T13:33:05;99681.28;;;12.34;53.35
50859;BME280;36826;47.514;19.056;2022-11-20T13:35:34;99680.66;;;12.40;53.51
50859;BME280;36826;47.514;19.056;2022-11-20T13:38:13;99676.66;;;12.44;53.83
50859;BME280;36826;47.514;19.056;2022-11-20T13:41:00;99674.78;;;12.36;53.64
50859;BME280;36826;47.514;19.056;2022-11-20T13:43:48;99668.38;;;12.03;53.53
50859;BME280;36826;47.514;19.056;2022-11-20T13:46:14;99659.84;;;12.07;53.67
50859;BME280;36826;47.514;19.056;2022-11-20T13:48:45;99665.94;;;12.18;53.76
50859;BME280;36826;47.514;19.056;2022-11-20T13:56:31;99652.00;;;12.49;53.79
50859;BME280;36826;47.514;19.056;2022-11-20T13:59:07;99651.28;;;11.86;54.34
50859;BME280;36826;47.514;19.056;2022-11-20T14:01:37;99652.81;;;11.88;54.69
50859;BME280;36826;47.514;19.056;2022-11-20T14:04:07;99655.16;;;11.65;55.39
50859;BME280;36826;47.514;19.056;2022-11-20T14:06:52;99655.66;;;11.87;54.95
50859;BME280;36826;47.514;19.056;2022-11-20T14:09:27;99647.13;;;11.91;54.80
50859;BME280;36826;47.514;19.056;2022-11-20T14:11:52;99648.81;;;11.48;56.00
50859;BME280;36826;47.514;19.056;2022-11-20T14:14:20;99652.34;;;11.30;56.68
50859;BME280;36826;47.514;19.056;2022-11-20T14:16:47;99651.19;;;11.51;55.81
50859;BME280;36826;47.514;19.056;2022-11-20T14:19:23;99654.84;;;11.68;56.22
50859;BME280;36826;47.514;19.056;2022-11-20T14:22:07;99654.03;;;11.68;55.37
50859;BME280;36826;47.514;19.056;2022-11-20T14:24:36;99648.59;;;11.23;56.39
50859;BME280;36826;47.514;19.056;2022-11-20T14:27:18;99651.28;;;11.41;55.90
50859;BME280;36826;47.514;19.056;2022-11-20T14:29:46;99660.50;;;11.20;57.06
50859;BME280;36826;47.514;19.056;2022-11-20T14:32:17;99657.81;;;11.39;56.10
50859;BME280;36826;47.514;19.056;2022-11-20T14:34:46;99660.78;;;11.54;55.78
50859;BME280;36826;47.514;19.056;2022-11-20T14:37:18;99673.34;;;11.53;55.87